sensor_id;sensor_type;location;lat;lon;timestamp;temperature;humidity
83685;DHT22;73666;51.304;5.776;2024-03-08T00:01:06;3.50;67.50
83685;DHT22;73666;51.304;5.776;2024-03-08T00:06:07;3.40;67.40
83685;DHT22;73666;51.304;5.776;2024-03-08T00:11:08;3.40;67.20
83685;DHT22;73666;51.304;5.776;2024-03-08T00:16:08;3.30;67.10
83685;DHT22;73666;51.304;5.776;2024-03-08T00:21:10;3.30;67.00
83685;DHT22;73666;51.304;5.776;2024-03-08T00:26:12;3.20;66.90
83685;DHT22;73666;51.304;5.776;2024-03-08T00:31:13;3.20;66.80
83685;DHT22;73666;51.304;5.776;2024-03-08T00:36:13;3.10;66.90
83685;DHT22;73666;51.304;5.776;2024-03-08T00:41:14;3.10;67.00
83685;DHT22;73666;51.304;5.776;2024-03-08T00:46:15;3.10;67.00
83685;DHT22;73666;51.304;5.776;2024-03-08T00:51:15;3.00;66.90
83685;DHT22;73666;51.304;5.776;2024-03-08T00:56:16;3.00;66.80
83685;DHT22;73666;51.304;5.776;2024-03-08T01:01:19;2.90;66.80
83685;DHT22;73666;51.304;5.776;2024-03-08T01:06:19;2.90;66.80
83685;DHT22;73666;51.304;5.776;2024-03-08T01:11:21;2.80;66.90
83685;DHT22;73666;51.304;5.776;2024-03-08T01:16:21;2.80;66.90
83685;DHT22;73666;51.304;5.776;2024-03-08T01:21:22;2.70;67.00
83685;DHT22;73666;51.304;5.776;2024-03-08T01:26:23;2.60;67.10
83685;DHT22;73666;51.304;5.776;2024-03-08T01:31:24;2.60;67.10
83685;DHT22;73666;51.304;5.776;2024-03-08T01:36:25;2.50;67.10
83685;DHT22;73666;51.304;5.776;2024-03-08T01:41:26;2.50;67.20
83685;DHT22;73666;51.304;5.776;2024-03-08T01:46:30;2.40;67.30
83685;DHT22;73666;51.304;5.776;2024-03-08T01:51:31;2.30;67.40
83685;DHT22;73666;51.304;5.776;2024-03-08T01:56:32;2.30;67.40
83685;DHT22;73666;51.304;5.776;2024-03-08T02:01:33;2.30;67.40
83685;DHT22;73666;51.304;5.776;2024-03-08T02:06:35;2.20;67.50
83685;DHT22;73666;51.304;5.776;2024-03-08T02:11:35;2.20;67.50
83685;DHT22;73666;51.304;5.776;2024-03-08T02:16:36;2.10;67.50
83685;DHT22;73666;51.304;5.776;2024-03-08T02:21:38;2.10;67.40
83685;DHT22;73666;51.304;5.776;2024-03-08T02:26:39;2.10;67.40
83685;DHT22;73666;51.304;5.776;2024-03-08T02:31:39;2.10;67.40
83685;DHT22;73666;51.304;5.776;2024-03-08T02:36:40;2.00;67.30
83685;DHT22;73666;51.304;5.776;2024-03-08T02:41:42;2.00;67.40
83685;DHT22;73666;51.304;5.776;2024-03-08T02:46:43;2.00;67.50
83685;DHT22;73666;51.304;5.776;2024-03-08T02:51:43;1.90;67.50
83685;DHT22;73666;51.304;5.776;2024-03-08T02:56:45;1.90;67.50
83685;DHT22;73666;51.304;5.776;2024-03-08T03:01:47;1.80;67.50
83685;DHT22;73666;51.304;5.776;2024-03-08T03:06:47;1.80;67.50
83685;DHT22;73666;51.304;5.776;2024-03-08T03:11:48;1.80;67.70
83685;DHT22;73666;51.304;5.776;2024-03-08T03:16:49;1.70;67.70
83685;DHT22;73666;51.304;5.776;2024-03-08T03:21:50;1.70;67.70
83685;DHT22;73666;51.304;5.776;2024-03-08T03:26:51;1.70;67.70
83685;DHT22;73666;51.304;5.776;2024-03-08T03:31:52;1.70;67.70
83685;DHT22;73666;51.304;5.776;2024-03-08T03:36:53;1.60;67.70
83685;DHT22;73666;51.304;5.776;2024-03-08T03:41:55;1.60;67.80
83685;DHT22;73666;51.304;5.776;2024-03-08T03:46:56;1.60;67.80
83685;DHT22;73666;51.304;5.776;2024-03-08T03:51:57;1.50;67.70
83685;DHT22;73666;51.304;5.776;2024-03-08T03:56:58;1.50;67.80
83685;DHT22;73666;51.304;5.776;2024-03-08T04:01:59;1.40;68.00
83685;DHT22;73666;51.304;5.776;2024-03-08T04:06:59;1.40;68.10
83685;DHT22;73666;51.304;5.776;2024-03-08T04:12:02;1.40;68.00
83685;DHT22;73666;51.304;5.776;2024-03-08T04:17:03;1.40;68.00
83685;DHT22;73666;51.304;5.776;2024-03-08T04:22:05;1.40;68.00
83685;DHT22;73666;51.304;5.776;2024-03-08T04:27:07;1.30;68.10
83685;DHT22;73666;51.304;5.776;2024-03-08T04:32:10;1.20;68.20
83685;DHT22;73666;51.304;5.776;2024-03-08T04:37:10;1.20;68.20
83685;DHT22;73666;51.304;5.776;2024-03-08T04:42:14;1.20;68.20
83685;DHT22;73666;51.304;5.776;2024-03-08T04:47:15;1.10;68.40
83685;DHT22;73666;51.304;5.776;2024-03-08T04:52:18;1.10;68.40
83685;DHT22;73666;51.304;5.776;2024-03-08T04:57:19;1.10;68.50
83685;DHT22;73666;51.304;5.776;2024-03-08T05:02:19;1.00;68.60
83685;DHT22;73666;51.304;5.776;2024-03-08T05:07:23;1.00;68.50
83685;DHT22;73666;51.304;5.776;2024-03-08T05:12:24;1.00;68.70
83685;DHT22;73666;51.304;5.776;2024-03-08T05:17:25;1.00;68.60
83685;DHT22;73666;51.304;5.776;2024-03-08T05:22:26;1.00;68.70
83685;DHT22;73666;51.304;5.776;2024-03-08T05:27:26;1.00;68.80
83685;DHT22;73666;51.304;5.776;2024-03-08T05:32:28;1.00;68.70
83685;DHT22;73666;51.304;5.776;2024-03-08T05:37:29;1.00;68.70
83685;DHT22;73666;51.304;5.776;2024-03-08T05:42:31;0.90;68.80
83685;DHT22;73666;51.304;5.776;2024-03-08T05:47:32;0.80;68.90
83685;DHT22;73666;51.304;5.776;2024-03-08T05:52:33;0.80;68.90
83685;DHT22;73666;51.304;5.776;2024-03-08T05:57:34;0.80;68.90
83685;DHT22;73666;51.304;5.776;2024-03-08T06:02:35;0.80;69.00
83685;DHT22;73666;51.304;5.776;2024-03-08T06:07:41;0.80;69.00
83685;DHT22;73666;51.304;5.776;2024-03-08T06:12:42;0.80;69.00
83685;DHT22;73666;51.304;5.776;2024-03-08T06:17:42;0.80;69.10
83685;DHT22;73666;51.304;5.776;2024-03-08T06:22:43;0.80;69.00
83685;DHT22;73666;51.304;5.776;2024-03-08T06:27:45;0.90;69.00
83685;DHT22;73666;51.304;5.776;2024-03-08T06:32:48;1.00;69.00
83685;DHT22;73666;51.304;5.776;2024-03-08T06:37:49;1.00;68.90
83685;DHT22;73666;51.304;5.776;2024-03-08T06:42:50;1.00;68.80
83685;DHT22;73666;51.304;5.776;2024-03-08T06:47:52;1.20;68.70
83685;DHT22;73666;51.304;5.776;2024-03-08T06:52:53;1.50;68.40
83685;DHT22;73666;51.304;5.776;2024-03-08T06:57:54;2.00;67.80
83685;DHT22;73666;51.304;5.776;2024-03-08T07:02:55;2.50;67.00
83685;DHT22;73666;51.304;5.776;2024-03-08T07:07:56;3.50;65.60
83685;DHT22;73666;51.304;5.776;2024-03-08T07:12:56;4.00;64.50
83685;DHT22;73666;51.304;5.776;2024-03-08T07:17:57;4.60;63.50
83685;DHT22;73666;51.304;5.776;2024-03-08T07:23:00;5.50;62.20
83685;DHT22;73666;51.304;5.776;2024-03-08T07:28:01;6.20;60.60
83685;DHT22;73666;51.304;5.776;2024-03-08T07:33:01;7.30;59.20
83685;DHT22;73666;51.304;5.776;2024-03-08T07:38:04;8.30;58.10
83685;DHT22;73666;51.304;5.776;2024-03-08T07:43:08;9.40;56.20
83685;DHT22;73666;51.304;5.776;2024-03-08T07:48:09;10.10;54.70
83685;DHT22;73666;51.304;5.776;2024-03-08T07:53:10;8.80;55.30
83685;DHT22;73666;51.304;5.776;2024-03-08T07:58:11;7.00;57.70
83685;DHT22;73666;51.304;5.776;2024-03-08T08:03:11;7.40;58.10
83685;DHT22;73666;51.304;5.776;2024-03-08T08:08:13;8.60;56.50
83685;DHT22;73666;51.304;5.776;2024-03-08T08:13:14;8.60;55.50
83685;DHT22;73666;51.304;5.776;2024-03-08T08:18:16;7.50;57.70
83685;DHT22;73666;51.304;5.776;2024-03-08T08:23:19;8.10;56.80
83685;DHT22;73666;51.304;5.776;2024-03-08T08:28:20;10.20;54.60
83685;DHT22;73666;51.304;5.776;2024-03-08T08:33:21;11.70;52.30
83685;DHT22;73666;51.304;5.776;2024-03-08T08:38:22;12.70;51.40
83685;DHT22;73666;51.304;5.776;2024-03-08T08:43:23;13.40;50.00
83685;DHT22;73666;51.304;5.776;2024-03-08T08:48:25;13.50;50.00
83685;DHT22;73666;51.304;5.776;2024-03-08T08:53:26;13.90;50.20
83685;DHT22;73666;51.304;5.776;2024-03-08T08:58:28;14.20;49.40
83685;DHT22;73666;51.304;5.776;2024-03-08T09:03:29;13.70;49.70
83685;DHT22;73666;51.304;5.776;2024-03-08T09:08:30;13.00;50.30
83685;DHT22;73666;51.304;5.776;2024-03-08T09:13:31;12.50;51.10
83685;DHT22;73666;51.304;5.776;2024-03-08T09:18:34;12.00;51.60
83685;DHT22;73666;51.304;5.776;2024-03-08T09:23:38;11.90;51.30
83685;DHT22;73666;51.304;5.776;2024-03-08T09:28:39;11.90;52.00
83685;DHT22;73666;51.304;5.776;2024-03-08T09:33:41;12.90;51.10
83685;DHT22;73666;51.304;5.776;2024-03-08T09:38:42;13.60;50.70
83685;DHT22;73666;51.304;5.776;2024-03-08T09:43:47;13.60;50.20
83685;DHT22;73666;51.304;5.776;2024-03-08T09:48:48;12.70;50.90
83685;DHT22;73666;51.304;5.776;2024-03-08T09:53:49;11.80;52.00
83685;DHT22;73666;51.304;5.776;2024-03-08T09:58:50;11.10;53.30
83685;DHT22;73666;51.304;5.776;2024-03-08T10:04:13;10.40;53.30
83685;DHT22;73666;51.304;5.776;2024-03-08T10:09:15;9.60;55.00
83685;DHT22;73666;51.304;5.776;2024-03-08T10:14:17;9.20;54.90
83685;DHT22;73666;51.304;5.776;2024-03-08T10:19:18;8.90;55.60
83685;DHT22;73666;51.304;5.776;2024-03-08T10:24:19;8.80;55.70
83685;DHT22;73666;51.304;5.776;2024-03-08T10:29:19;8.60;56.10
83685;DHT22;73666;51.304;5.776;2024-03-08T10:34:20;8.70;56.80
83685;DHT22;73666;51.304;5.776;2024-03-08T10:39:23;8.80;56.20
83685;DHT22;73666;51.304;5.776;2024-03-08T10:49:32;8.80;55.70
83685;DHT22;73666;51.304;5.776;2024-03-08T10:54:39;8.70;55.70
83685;DHT22;73666;51.304;5.776;2024-03-08T10:59:41;8.80;55.50
83685;DHT22;73666;51.304;5.776;2024-03-08T11:04:48;8.80;56.10
83685;DHT22;73666;51.304;5.776;2024-03-08T11:09:49;8.80;55.30
83685;DHT22;73666;51.304;5.776;2024-03-08T11:14:54;8.90;55.30
83685;DHT22;73666;51.304;5.776;2024-03-08T11:19:58;8.90;55.70
83685;DHT22;73666;51.304;5.776;2024-03-08T11:25:03;9.00;55.90
83685;DHT22;73666;51.304;5.776;2024-03-08T11:30:09;9.10;55.40
83685;DHT22;73666;51.304;5.776;2024-03-08T11:35:20;9.20;55.20
83685;DHT22;73666;51.304;5.776;2024-03-08T11:40:21;9.20;54.60
83685;DHT22;73666;51.304;5.776;2024-03-08T11:45:23;9.20;55.10
83685;DHT22;73666;51.304;5.776;2024-03-08T11:50:23;9.20;55.30
83685;DHT22;73666;51.304;5.776;2024-03-08T11:55:24;9.40;55.50
83685;DHT22;73666;51.304;5.776;2024-03-08T12:00:25;9.40;55.10
83685;DHT22;73666;51.304;5.776;2024-03-08T12:05:26;9.50;55.50
83685;DHT22;73666;51.304;5.776;2024-03-08T12:10:28;9.70;55.10
83685;DHT22;73666;51.304;5.776;2024-03-08T12:15:29;9.80;54.60
83685;DHT22;73666;51.304;5.776;2024-03-08T12:20:33;9.80;54.50
83685;DHT22;73666;51.304;5.776;2024-03-08T12:25:34;10.00;54.80
83685;DHT22;73666;51.304;5.776;2024-03-08T12:30:51;10.10;54.40
83685;DHT22;73666;51.304;5.776;2024-03-08T12:35:57;10.10;54.10
83685;DHT22;73666;51.304;5.776;2024-03-08T12:40:59;10.20;54.50
83685;DHT22;73666;51.304;5.776;2024-03-08T12:46:01;10.30;54.10
83685;DHT22;73666;51.304;5.776;2024-03-08T12:51:02;10.50;53.70
83685;DHT22;73666;51.304;5.776;2024-03-08T12:56:03;10.60;53.40
83685;DHT22;73666;51.304;5.776;2024-03-08T13:01:08;10.70;52.80
83685;DHT22;73666;51.304;5.776;2024-03-08T13:06:09;10.80;52.40
83685;DHT22;73666;51.304;5.776;2024-03-08T13:11:11;10.90;52.50
83685;DHT22;73666;51.304;5.776;2024-03-08T13:16:12;11.00;52.50
83685;DHT22;73666;51.304;5.776;2024-03-08T13:21:19;11.00;51.60
83685;DHT22;73666;51.304;5.776;2024-03-08T13:26:20;11.00;52.30
83685;DHT22;73666;51.304;5.776;2024-03-08T13:31:22;11.10;52.30
83685;DHT22;73666;51.304;5.776;2024-03-08T13:36:22;11.20;51.60
83685;DHT22;73666;51.304;5.776;2024-03-08T13:41:29;11.10;51.20
83685;DHT22;73666;51.304;5.776;2024-03-08T13:46:30;11.10;51.30
83685;DHT22;73666;51.304;5.776;2024-03-08T13:51:31;11.20;51.00
83685;DHT22;73666;51.304;5.776;2024-03-08T13:56:32;11.20;51.80
83685;DHT22;73666;51.304;5.776;2024-03-08T14:01:33;11.30;51.30
83685;DHT22;73666;51.304;5.776;2024-03-08T14:06:36;11.30;51.40
83685;DHT22;73666;51.304;5.776;2024-03-08T14:11:37;11.40;51.60
83685;DHT22;73666;51.304;5.776;2024-03-08T14:16:41;11.50;51.90
83685;DHT22;73666;51.304;5.776;2024-03-08T14:21:43;11.70;51.90
83685;DHT22;73666;51.304;5.776;2024-03-08T14:26:45;11.70;51.90
83685;DHT22;73666;51.304;5.776;2024-03-08T14:31:49;11.80;51.40
83685;DHT22;73666;51.304;5.776;2024-03-08T14:36:50;11.90;51.80
83685;DHT22;73666;51.304;5.776;2024-03-08T14:41:50;11.90;51.50
83685;DHT22;73666;51.304;5.776;2024-03-08T14:46:56;11.90;50.40
83685;DHT22;73666;51.304;5.776;2024-03-08T14:51:57;11.80;51.20
83685;DHT22;73666;51.304;5.776;2024-03-08T14:57:01;11.70;51.00
83685;DHT22;73666;51.304;5.776;2024-03-08T15:02:03;11.90;51.70
83685;DHT22;73666;51.304;5.776;2024-03-08T15:07:07;11.90;50.90
83685;DHT22;73666;51.304;5.776;2024-03-08T15:12:10;11.90;51.10
83685;DHT22;73666;51.304;5.776;2024-03-08T15:17:11;11.90;51.20
83685;DHT22;73666;51.304;5.776;2024-03-08T15:22:17;11.90;51.40
83685;DHT22;73666;51.304;5.776;2024-03-08T15:27:18;11.80;51.40
83685;DHT22;73666;51.304;5.776;2024-03-08T15:32:19;11.70;51.70
83685;DHT22;73666;51.304;5.776;2024-03-08T15:37:21;11.70;51.60
83685;DHT22;73666;51.304;5.776;2024-03-08T15:42:22;11.60;51.10
83685;DHT22;73666;51.304;5.776;2024-03-08T15:47:26;11.50;51.50
83685;DHT22;73666;51.304;5.776;2024-03-08T15:52:27;11.40;51.20
83685;DHT22;73666;51.304;5.776;2024-03-08T15:57:27;11.30;51.20
83685;DHT22;73666;51.304;5.776;2024-03-08T16:02:28;11.30;51.60
83685;DHT22;73666;51.304;5.776;2024-03-08T16:07:29;11.10;51.10
83685;DHT22;73666;51.304;5.776;2024-03-08T16:12:35;11.10;51.80
83685;DHT22;73666;51.304;5.776;2024-03-08T16:17:36;11.00;52.10
83685;DHT22;73666;51.304;5.776;2024-03-08T16:22:38;10.90;51.90
83685;DHT22;73666;51.304;5.776;2024-03-08T16:27:40;10.70;52.10
83685;DHT22;73666;51.304;5.776;2024-03-08T16:32:43;10.70;52.30
83685;DHT22;73666;51.304;5.776;2024-03-08T16:37:44;10.60;51.90
83685;DHT22;73666;51.304;5.776;2024-03-08T16:42:47;10.50;51.70
83685;DHT22;73666;51.304;5.776;2024-03-08T16:47:51;10.40;51.80
83685;DHT22;73666;51.304;5.776;2024-03-08T16:52:54;10.20;52.20
83685;DHT22;73666;51.304;5.776;2024-03-08T16:57:55;10.10;52.60
83685;DHT22;73666;51.304;5.776;2024-03-08T17:02:56;10.00;53.00
83685;DHT22;73666;51.304;5.776;2024-03-08T17:08:01;9.90;53.20
83685;DHT22;73666;51.304;5.776;2024-03-08T17:13:05;9.70;53.50
83685;DHT22;73666;51.304;5.776;2024-03-08T17:18:07;9.60;53.80
83685;DHT22;73666;51.304;5.776;2024-03-08T17:23:09;9.40;54.20
83685;DHT22;73666;51.304;5.776;2024-03-08T17:28:13;9.30;54.40
83685;DHT22;73666;51.304;5.776;2024-03-08T17:33:15;9.10;54.50
83685;DHT22;73666;51.304;5.776;2024-03-08T17:38:22;9.00;54.70
83685;DHT22;73666;51.304;5.776;2024-03-08T17:43:28;8.80;55.00
83685;DHT22;73666;51.304;5.776;2024-03-08T17:48:28;8.60;55.40
83685;DHT22;73666;51.304;5.776;2024-03-08T17:53:30;8.50;55.70
83685;DHT22;73666;51.304;5.776;2024-03-08T17:58:35;8.40;55.80
83685;DHT22;73666;51.304;5.776;2024-03-08T18:03:36;8.30;56.00
83685;DHT22;73666;51.304;5.776;2024-03-08T18:08:38;8.20;56.20
83685;DHT22;73666;51.304;5.776;2024-03-08T18:13:39;8.10;56.40
83685;DHT22;73666;51.304;5.776;2024-03-08T18:18:39;8.00;56.50
83685;DHT22;73666;51.304;5.776;2024-03-08T18:23:40;8.00;56.70
83685;DHT22;73666;51.304;5.776;2024-03-08T18:28:41;7.80;56.80
83685;DHT22;73666;51.304;5.776;2024-03-08T18:33:45;7.80;57.00
83685;DHT22;73666;51.304;5.776;2024-03-08T18:38:46;7.70;57.10
83685;DHT22;73666;51.304;5.776;2024-03-08T18:43:47;7.60;57.30
83685;DHT22;73666;51.304;5.776;2024-03-08T18:48:50;7.50;57.30
83685;DHT22;73666;51.304;5.776;2024-03-08T18:53:51;7.50;57.30
83685;DHT22;73666;51.304;5.776;2024-03-08T18:58:52;7.50;57.40
83685;DHT22;73666;51.304;5.776;2024-03-08T19:03:53;7.50;57.40
83685;DHT22;73666;51.304;5.776;2024-03-08T19:08:56;7.50;57.40
83685;DHT22;73666;51.304;5.776;2024-03-08T19:14:00;7.50;57.50
83685;DHT22;73666;51.304;5.776;2024-03-08T19:19:01;7.40;57.50
83685;DHT22;73666;51.304;5.776;2024-03-08T19:24:01;7.40;57.50
83685;DHT22;73666;51.304;5.776;2024-03-08T19:29:03;7.30;57.70
83685;DHT22;73666;51.304;5.776;2024-03-08T19:34:04;7.20;57.80
83685;DHT22;73666;51.304;5.776;2024-03-08T19:39:10;7.20;57.80
83685;DHT22;73666;51.304;5.776;2024-03-08T19:44:11;7.20;58.00
83685;DHT22;73666;51.304;5.776;2024-03-08T19:49:15;7.10;58.10
83685;DHT22;73666;51.304;5.776;2024-03-08T19:54:17;7.00;58.30
83685;DHT22;73666;51.304;5.776;2024-03-08T19:59:19;6.90;58.60
83685;DHT22;73666;51.304;5.776;2024-03-08T20:04:20;6.90;58.50
83685;DHT22;73666;51.304;5.776;2024-03-08T20:09:21;6.90;58.70
83685;DHT22;73666;51.304;5.776;2024-03-08T20:14:25;6.80;58.80
83685;DHT22;73666;51.304;5.776;2024-03-08T20:19:27;6.70;59.00
83685;DHT22;73666;51.304;5.776;2024-03-08T20:24:29;6.60;59.20
83685;DHT22;73666;51.304;5.776;2024-03-08T20:29:35;6.60;59.20
83685;DHT22;73666;51.304;5.776;2024-03-08T20:34:41;6.50;59.30
83685;DHT22;73666;51.304;5.776;2024-03-08T20:39:45;6.50;59.50
83685;DHT22;73666;51.304;5.776;2024-03-08T20:44:46;6.30;59.60
83685;DHT22;73666;51.304;5.776;2024-03-08T20:49:47;6.30;59.70
83685;DHT22;73666;51.304;5.776;2024-03-08T20:54:50;6.20;59.80
83685;DHT22;73666;51.304;5.776;2024-03-08T20:59:51;6.10;60.00
83685;DHT22;73666;51.304;5.776;2024-03-08T21:04:52;6.00;60.10
83685;DHT22;73666;51.304;5.776;2024-03-08T21:09:53;6.00;60.10
83685;DHT22;73666;51.304;5.776;2024-03-08T21:14:53;5.80;60.30
83685;DHT22;73666;51.304;5.776;2024-03-08T21:19:54;5.70;60.40
83685;DHT22;73666;51.304;5.776;2024-03-08T21:24:56;5.60;60.50
83685;DHT22;73666;51.304;5.776;2024-03-08T21:29:57;5.50;60.60
83685;DHT22;73666;51.304;5.776;2024-03-08T21:34:58;5.50;60.80
83685;DHT22;73666;51.304;5.776;2024-03-08T21:39:59;5.40;60.80
83685;DHT22;73666;51.304;5.776;2024-03-08T21:45:02;5.30;61.10
83685;DHT22;73666;51.304;5.776;2024-03-08T21:50:05;5.30;61.30
83685;DHT22;73666;51.304;5.776;2024-03-08T21:55:06;5.30;61.30
83685;DHT22;73666;51.304;5.776;2024-03-08T22:00:07;5.20;61.40
83685;DHT22;73666;51.304;5.776;2024-03-08T22:05:18;5.10;61.60
83685;DHT22;73666;51.304;5.776;2024-03-08T22:10:21;5.10;61.70
83685;DHT22;73666;51.304;5.776;2024-03-08T22:15:26;5.10;61.70
83685;DHT22;73666;51.304;5.776;2024-03-08T22:20:27;5.10;61.80
83685;DHT22;73666;51.304;5.776;2024-03-08T22:25:31;5.00;61.80
83685;DHT22;73666;51.304;5.776;2024-03-08T22:30:32;5.00;61.90
83685;DHT22;73666;51.304;5.776;2024-03-08T22:35:33;5.00;62.00
83685;DHT22;73666;51.304;5.776;2024-03-08T22:40:34;4.90;62.10
83685;DHT22;73666;51.304;5.776;2024-03-08T22:45:34;4.90;62.20
83685;DHT22;73666;51.304;5.776;2024-03-08T22:50:35;5.00;62.20
83685;DHT22;73666;51.304;5.776;2024-03-08T22:55:37;4.90;62.30
83685;DHT22;73666;51.304;5.776;2024-03-08T23:00:37;5.00;62.40
83685;DHT22;73666;51.304;5.776;2024-03-08T23:05:38;4.90;62.50
83685;DHT22;73666;51.304;5.776;2024-03-08T23:10:41;4.90;62.60
83685;DHT22;73666;51.304;5.776;2024-03-08T23:15:42;4.70;62.70
83685;DHT22;73666;51.304;5.776;2024-03-08T23:20:44;4.70;62.90
83685;DHT22;73666;51.304;5.776;2024-03-08T23:25:44;4.50;63.00
83685;DHT22;73666;51.304;5.776;2024-03-08T23:30:45;4.50;63.10
83685;DHT22;73666;51.304;5.776;2024-03-08T23:35:46;4.40;63.20
83685;DHT22;73666;51.304;5.776;2024-03-08T23:40:47;4.40;63.20
83685;DHT22;73666;51.304;5.776;2024-03-08T23:45:47;4.30;63.30
83685;DHT22;73666;51.304;5.776;2024-03-08T23:50:49;4.20;63.50
83685;DHT22;73666;51.304;5.776;2024-03-08T23:55:49;4.10;63.60
